sensor_id;sensor_type;location;lat;lon;timestamp;temperature;humidity
42365;DHT22;28498;54.400;18.566;2023-08-06T00:02:16;15.60;99.90
42365;DHT22;28498;54.400;18.566;2023-08-06T00:04:43;15.60;99.90
42365;DHT22;28498;54.400;18.566;2023-08-06T00:07:10;15.60;99.90
42365;DHT22;28498;54.400;18.566;2023-08-06T00:09:37;15.60;99.90
42365;DHT22;28498;54.400;18.566;2023-08-06T00:12:04;15.70;99.90
42365;DHT22;28498;54.400;18.566;2023-08-06T00:14:31;15.70;99.90
42365;DHT22;28498;54.400;18.566;2023-08-06T00:16:58;15.70;99.90
42365;DHT22;28498;54.400;18.566;2023-08-06T00:19:25;15.80;99.90
42365;DHT22;28498;54.400;18.566;2023-08-06T00:21:52;15.80;99.90
42365;DHT22;28498;54.400;18.566;2023-08-06T00:24:20;15.70;99.90
42365;DHT22;28498;54.400;18.566;2023-08-06T00:26:47;15.80;99.90
42365;DHT22;28498;54.400;18.566;2023-08-06T00:29:14;15.80;99.90
42365;DHT22;28498;54.400;18.566;2023-08-06T00:31:41;15.90;99.90
42365;DHT22;28498;54.400;18.566;2023-08-06T00:34:08;16.00;99.90
42365;DHT22;28498;54.400;18.566;2023-08-06T00:36:35;16.10;99.90
42365;DHT22;28498;54.400;18.566;2023-08-06T00:39:02;16.10;99.90
42365;DHT22;28498;54.400;18.566;2023-08-06T00:41:29;16.20;99.90
42365;DHT22;28498;54.400;18.566;2023-08-06T00:43:56;16.40;99.90
42365;DHT22;28498;54.400;18.566;2023-08-06T00:46:23;16.40;99.90
42365;DHT22;28498;54.400;18.566;2023-08-06T00:48:51;16.40;99.90
42365;DHT22;28498;54.400;18.566;2023-08-06T00:51:18;16.50;99.90
42365;DHT22;28498;54.400;18.566;2023-08-06T00:53:46;16.50;99.90
42365;DHT22;28498;54.400;18.566;2023-08-06T00:56:13;16.50;99.90
42365;DHT22;28498;54.400;18.566;2023-08-06T00:58:41;16.50;99.90
42365;DHT22;28498;54.400;18.566;2023-08-06T01:01:08;16.50;99.90
42365;DHT22;28498;54.400;18.566;2023-08-06T01:03:36;16.40;99.90
42365;DHT22;28498;54.400;18.566;2023-08-06T01:06:03;16.30;99.90
42365;DHT22;28498;54.400;18.566;2023-08-06T01:14:21;16.10;99.90
42365;DHT22;28498;54.400;18.566;2023-08-06T01:16:51;16.10;99.90
42365;DHT22;28498;54.400;18.566;2023-08-06T01:19:19;16.20;99.90
42365;DHT22;28498;54.400;18.566;2023-08-06T01:21:46;16.10;99.90
42365;DHT22;28498;54.400;18.566;2023-08-06T01:24:13;16.10;99.90
42365;DHT22;28498;54.400;18.566;2023-08-06T01:27:37;16.10;99.90
42365;DHT22;28498;54.400;18.566;2023-08-06T01:30:22;16.10;99.90
42365;DHT22;28498;54.400;18.566;2023-08-06T01:32:57;16.10;99.90
42365;DHT22;28498;54.400;18.566;2023-08-06T01:35:26;16.00;99.90
42365;DHT22;28498;54.400;18.566;2023-08-06T01:37:54;16.00;99.90
42365;DHT22;28498;54.400;18.566;2023-08-06T01:40:23;16.00;99.90
42365;DHT22;28498;54.400;18.566;2023-08-06T01:42:50;15.90;99.90
42365;DHT22;28498;54.400;18.566;2023-08-06T01:45:17;15.90;99.90
42365;DHT22;28498;54.400;18.566;2023-08-06T01:47:44;15.90;99.90
42365;DHT22;28498;54.400;18.566;2023-08-06T01:50:11;15.90;99.90
42365;DHT22;28498;54.400;18.566;2023-08-06T01:52:38;16.00;99.90
42365;DHT22;28498;54.400;18.566;2023-08-06T01:55:05;15.90;99.90
42365;DHT22;28498;54.400;18.566;2023-08-06T01:57:32;15.90;99.90
42365;DHT22;28498;54.400;18.566;2023-08-06T01:59:59;15.80;99.90
42365;DHT22;28498;54.400;18.566;2023-08-06T02:02:26;15.80;99.90
42365;DHT22;28498;54.400;18.566;2023-08-06T02:04:53;15.80;99.90
42365;DHT22;28498;54.400;18.566;2023-08-06T02:07:21;15.70;99.90
42365;DHT22;28498;54.400;18.566;2023-08-06T02:09:48;15.70;99.90
42365;DHT22;28498;54.400;18.566;2023-08-06T02:12:15;15.60;99.90
42365;DHT22;28498;54.400;18.566;2023-08-06T02:14:42;15.60;99.90
42365;DHT22;28498;54.400;18.566;2023-08-06T02:17:09;15.50;99.90
42365;DHT22;28498;54.400;18.566;2023-08-06T02:19:36;15.40;99.90
42365;DHT22;28498;54.400;18.566;2023-08-06T02:22:03;15.40;99.90
42365;DHT22;28498;54.400;18.566;2023-08-06T02:24:30;15.40;99.90
42365;DHT22;28498;54.400;18.566;2023-08-06T02:26:57;15.40;99.90
42365;DHT22;28498;54.400;18.566;2023-08-06T02:29:24;15.40;99.90
42365;DHT22;28498;54.400;18.566;2023-08-06T02:31:51;15.40;99.90
42365;DHT22;28498;54.400;18.566;2023-08-06T02:34:18;15.30;99.90
42365;DHT22;28498;54.400;18.566;2023-08-06T02:36:45;15.30;99.90
42365;DHT22;28498;54.400;18.566;2023-08-06T02:39:12;15.30;99.90
42365;DHT22;28498;54.400;18.566;2023-08-06T02:41:39;15.30;99.90
42365;DHT22;28498;54.400;18.566;2023-08-06T02:44:06;15.20;99.90
42365;DHT22;28498;54.400;18.566;2023-08-06T02:46:33;15.20;99.90
42365;DHT22;28498;54.400;18.566;2023-08-06T02:49:00;15.30;99.90
42365;DHT22;28498;54.400;18.566;2023-08-06T02:51:27;15.20;99.90
42365;DHT22;28498;54.400;18.566;2023-08-06T02:53:54;15.30;99.90
42365;DHT22;28498;54.400;18.566;2023-08-06T02:56:21;15.30;99.90
42365;DHT22;28498;54.400;18.566;2023-08-06T02:58:48;15.40;99.90
42365;DHT22;28498;54.400;18.566;2023-08-06T03:01:15;15.40;99.90
42365;DHT22;28498;54.400;18.566;2023-08-06T03:03:42;15.50;99.90
42365;DHT22;28498;54.400;18.566;2023-08-06T03:06:09;15.50;99.90
42365;DHT22;28498;54.400;18.566;2023-08-06T03:08:36;15.50;99.90
42365;DHT22;28498;54.400;18.566;2023-08-06T03:11:03;15.60;99.90
42365;DHT22;28498;54.400;18.566;2023-08-06T03:13:30;15.70;99.90
42365;DHT22;28498;54.400;18.566;2023-08-06T03:15:59;15.80;99.90
42365;DHT22;28498;54.400;18.566;2023-08-06T03:18:26;15.90;99.90
42365;DHT22;28498;54.400;18.566;2023-08-06T03:20:53;16.00;99.90
42365;DHT22;28498;54.400;18.566;2023-08-06T03:23:21;16.00;99.90
42365;DHT22;28498;54.400;18.566;2023-08-06T03:25:48;16.20;99.90
42365;DHT22;28498;54.400;18.566;2023-08-06T03:28:15;16.20;99.90
42365;DHT22;28498;54.400;18.566;2023-08-06T03:30:42;16.30;99.90
42365;DHT22;28498;54.400;18.566;2023-08-06T03:33:09;16.30;99.90
42365;DHT22;28498;54.400;18.566;2023-08-06T03:35:36;16.40;99.90
42365;DHT22;28498;54.400;18.566;2023-08-06T03:38:03;16.40;99.90
42365;DHT22;28498;54.400;18.566;2023-08-06T03:40:31;16.50;99.90
42365;DHT22;28498;54.400;18.566;2023-08-06T03:42:58;16.50;99.90
42365;DHT22;28498;54.400;18.566;2023-08-06T03:45:25;16.50;99.90
42365;DHT22;28498;54.400;18.566;2023-08-06T03:47:52;16.60;99.90
42365;DHT22;28498;54.400;18.566;2023-08-06T03:50:19;16.70;99.90
42365;DHT22;28498;54.400;18.566;2023-08-06T03:52:46;16.60;99.90
42365;DHT22;28498;54.400;18.566;2023-08-06T03:55:13;16.70;99.90
42365;DHT22;28498;54.400;18.566;2023-08-06T03:57:40;16.80;99.90
42365;DHT22;28498;54.400;18.566;2023-08-06T04:00:08;16.80;99.90
42365;DHT22;28498;54.400;18.566;2023-08-06T04:02:35;16.80;99.90
42365;DHT22;28498;54.400;18.566;2023-08-06T04:05:02;16.80;99.90
42365;DHT22;28498;54.400;18.566;2023-08-06T04:07:29;16.80;99.90
42365;DHT22;28498;54.400;18.566;2023-08-06T04:10:00;16.80;99.90
42365;DHT22;28498;54.400;18.566;2023-08-06T04:12:28;16.80;99.90
42365;DHT22;28498;54.400;18.566;2023-08-06T04:14:57;16.80;99.90
42365;DHT22;28498;54.400;18.566;2023-08-06T04:17:24;16.80;99.90
42365;DHT22;28498;54.400;18.566;2023-08-06T04:19:53;16.80;99.90
42365;DHT22;28498;54.400;18.566;2023-08-06T04:22:21;16.80;99.90
42365;DHT22;28498;54.400;18.566;2023-08-06T04:24:48;16.80;99.90
42365;DHT22;28498;54.400;18.566;2023-08-06T04:27:16;16.80;99.90
42365;DHT22;28498;54.400;18.566;2023-08-06T04:29:43;16.90;99.90
42365;DHT22;28498;54.400;18.566;2023-08-06T04:32:10;16.90;99.90
42365;DHT22;28498;54.400;18.566;2023-08-06T04:34:37;16.90;99.90
42365;DHT22;28498;54.400;18.566;2023-08-06T04:37:05;17.00;99.90
42365;DHT22;28498;54.400;18.566;2023-08-06T04:39:32;17.00;99.90
42365;DHT22;28498;54.400;18.566;2023-08-06T04:41:59;17.00;99.90
42365;DHT22;28498;54.400;18.566;2023-08-06T04:44:26;17.00;99.90
42365;DHT22;28498;54.400;18.566;2023-08-06T04:46:53;17.00;99.90
42365;DHT22;28498;54.400;18.566;2023-08-06T04:49:20;17.00;99.90
42365;DHT22;28498;54.400;18.566;2023-08-06T04:51:47;17.00;99.90
42365;DHT22;28498;54.400;18.566;2023-08-06T04:54:15;16.90;99.90
42365;DHT22;28498;54.400;18.566;2023-08-06T04:56:42;17.00;99.90
42365;DHT22;28498;54.400;18.566;2023-08-06T04:59:09;17.10;99.90
42365;DHT22;28498;54.400;18.566;2023-08-06T05:01:36;17.00;99.90
42365;DHT22;28498;54.400;18.566;2023-08-06T05:04:03;17.00;99.90
42365;DHT22;28498;54.400;18.566;2023-08-06T05:06:30;17.10;99.90
42365;DHT22;28498;54.400;18.566;2023-08-06T05:08:57;17.00;99.90
42365;DHT22;28498;54.400;18.566;2023-08-06T05:11:24;17.00;99.90
42365;DHT22;28498;54.400;18.566;2023-08-06T05:13:51;17.10;99.90
42365;DHT22;28498;54.400;18.566;2023-08-06T05:16:18;17.10;99.90
42365;DHT22;28498;54.400;18.566;2023-08-06T05:18:45;17.10;99.90
42365;DHT22;28498;54.400;18.566;2023-08-06T05:21:12;17.20;99.90
42365;DHT22;28498;54.400;18.566;2023-08-06T05:23:39;17.20;99.90
42365;DHT22;28498;54.400;18.566;2023-08-06T05:26:06;17.20;99.90
42365;DHT22;28498;54.400;18.566;2023-08-06T05:28:34;17.20;99.90
42365;DHT22;28498;54.400;18.566;2023-08-06T05:31:04;17.20;99.90
42365;DHT22;28498;54.400;18.566;2023-08-06T05:33:31;17.20;99.90
42365;DHT22;28498;54.400;18.566;2023-08-06T05:35:58;17.30;99.90
42365;DHT22;28498;54.400;18.566;2023-08-06T05:38:26;17.20;99.90
42365;DHT22;28498;54.400;18.566;2023-08-06T05:40:53;17.30;99.90
42365;DHT22;28498;54.400;18.566;2023-08-06T05:43:20;17.20;99.90
42365;DHT22;28498;54.400;18.566;2023-08-06T05:45:49;17.30;99.90
42365;DHT22;28498;54.400;18.566;2023-08-06T05:48:16;17.20;99.90
42365;DHT22;28498;54.400;18.566;2023-08-06T05:50:43;17.20;99.90
42365;DHT22;28498;54.400;18.566;2023-08-06T05:53:10;17.30;99.90
42365;DHT22;28498;54.400;18.566;2023-08-06T05:55:38;17.20;99.90
42365;DHT22;28498;54.400;18.566;2023-08-06T05:58:05;17.20;99.90
42365;DHT22;28498;54.400;18.566;2023-08-06T06:00:32;17.30;99.90
42365;DHT22;28498;54.400;18.566;2023-08-06T06:02:59;17.30;99.90
42365;DHT22;28498;54.400;18.566;2023-08-06T06:05:26;17.20;99.90
42365;DHT22;28498;54.400;18.566;2023-08-06T06:07:53;17.30;99.90
42365;DHT22;28498;54.400;18.566;2023-08-06T06:10:20;17.30;99.90
42365;DHT22;28498;54.400;18.566;2023-08-06T06:12:47;17.30;99.90
42365;DHT22;28498;54.400;18.566;2023-08-06T06:15:14;17.30;99.90
42365;DHT22;28498;54.400;18.566;2023-08-06T06:17:41;17.30;99.90
42365;DHT22;28498;54.400;18.566;2023-08-06T06:20:08;17.40;99.90
42365;DHT22;28498;54.400;18.566;2023-08-06T06:22:35;17.40;99.90
42365;DHT22;28498;54.400;18.566;2023-08-06T06:25:03;17.40;99.90
42365;DHT22;28498;54.400;18.566;2023-08-06T06:27:30;17.40;99.90
42365;DHT22;28498;54.400;18.566;2023-08-06T06:29:57;17.40;99.90
42365;DHT22;28498;54.400;18.566;2023-08-06T06:32:24;17.40;99.90
42365;DHT22;28498;54.400;18.566;2023-08-06T06:34:52;17.40;99.90
42365;DHT22;28498;54.400;18.566;2023-08-06T06:37:19;17.50;99.90
42365;DHT22;28498;54.400;18.566;2023-08-06T06:39:45;17.50;99.90
42365;DHT22;28498;54.400;18.566;2023-08-06T06:42:12;17.50;99.90
42365;DHT22;28498;54.400;18.566;2023-08-06T06:44:41;17.60;99.90
42365;DHT22;28498;54.400;18.566;2023-08-06T06:47:08;17.70;99.90
42365;DHT22;28498;54.400;18.566;2023-08-06T06:49:35;17.70;99.90
42365;DHT22;28498;54.400;18.566;2023-08-06T06:52:02;17.80;99.90
42365;DHT22;28498;54.400;18.566;2023-08-06T06:54:29;17.90;99.90
42365;DHT22;28498;54.400;18.566;2023-08-06T06:56:57;17.90;99.90
42365;DHT22;28498;54.400;18.566;2023-08-06T06:59:24;17.90;99.90
42365;DHT22;28498;54.400;18.566;2023-08-06T07:01:51;17.90;99.90
42365;DHT22;28498;54.400;18.566;2023-08-06T07:04:19;17.90;99.90
42365;DHT22;28498;54.400;18.566;2023-08-06T07:06:45;17.90;99.90
42365;DHT22;28498;54.400;18.566;2023-08-06T07:09:13;18.00;99.90
42365;DHT22;28498;54.400;18.566;2023-08-06T07:11:40;18.00;99.90
42365;DHT22;28498;54.400;18.566;2023-08-06T07:14:08;18.00;99.90
42365;DHT22;28498;54.400;18.566;2023-08-06T07:16:35;18.10;99.90
42365;DHT22;28498;54.400;18.566;2023-08-06T07:19:02;18.10;99.90
42365;DHT22;28498;54.400;18.566;2023-08-06T07:21:29;18.10;99.90
42365;DHT22;28498;54.400;18.566;2023-08-06T07:23:56;18.10;99.90
42365;DHT22;28498;54.400;18.566;2023-08-06T07:26:23;18.20;99.90
42365;DHT22;28498;54.400;18.566;2023-08-06T07:28:50;18.20;99.90
42365;DHT22;28498;54.400;18.566;2023-08-06T07:31:17;18.20;99.90
42365;DHT22;28498;54.400;18.566;2023-08-06T07:33:44;18.20;99.90
42365;DHT22;28498;54.400;18.566;2023-08-06T07:36:13;18.30;99.90
42365;DHT22;28498;54.400;18.566;2023-08-06T07:38:40;18.40;99.90
42365;DHT22;28498;54.400;18.566;2023-08-06T07:41:08;18.40;99.90
42365;DHT22;28498;54.400;18.566;2023-08-06T07:43:35;18.40;99.90
42365;DHT22;28498;54.400;18.566;2023-08-06T07:46:03;18.40;99.90
42365;DHT22;28498;54.400;18.566;2023-08-06T07:48:30;18.50;99.90
42365;DHT22;28498;54.400;18.566;2023-08-06T07:50:57;18.50;99.90
42365;DHT22;28498;54.400;18.566;2023-08-06T07:53:25;18.50;99.90
42365;DHT22;28498;54.400;18.566;2023-08-06T07:55:56;18.60;99.90
42365;DHT22;28498;54.400;18.566;2023-08-06T07:58:25;18.70;99.90
42365;DHT22;28498;54.400;18.566;2023-08-06T08:00:52;18.60;99.90
42365;DHT22;28498;54.400;18.566;2023-08-06T08:03:19;18.60;99.90
42365;DHT22;28498;54.400;18.566;2023-08-06T08:05:47;18.60;99.90
42365;DHT22;28498;54.400;18.566;2023-08-06T08:08:14;18.70;99.90
42365;DHT22;28498;54.400;18.566;2023-08-06T08:10:42;18.70;99.90
42365;DHT22;28498;54.400;18.566;2023-08-06T08:13:09;18.60;99.90
42365;DHT22;28498;54.400;18.566;2023-08-06T08:15:37;18.70;99.90
42365;DHT22;28498;54.400;18.566;2023-08-06T08:18:03;18.70;99.90
42365;DHT22;28498;54.400;18.566;2023-08-06T08:20:31;18.80;99.90
42365;DHT22;28498;54.400;18.566;2023-08-06T08:23:02;18.80;99.90
42365;DHT22;28498;54.400;18.566;2023-08-06T08:25:29;18.80;99.90
42365;DHT22;28498;54.400;18.566;2023-08-06T08:27:58;18.70;99.90
42365;DHT22;28498;54.400;18.566;2023-08-06T08:30:25;18.80;99.90
42365;DHT22;28498;54.400;18.566;2023-08-06T08:32:55;18.70;99.90
42365;DHT22;28498;54.400;18.566;2023-08-06T08:35:22;18.70;99.90
42365;DHT22;28498;54.400;18.566;2023-08-06T08:37:49;18.70;99.90
42365;DHT22;28498;54.400;18.566;2023-08-06T08:40:17;18.70;99.90
42365;DHT22;28498;54.400;18.566;2023-08-06T08:42:44;18.70;99.90
42365;DHT22;28498;54.400;18.566;2023-08-06T08:45:13;18.80;99.90
42365;DHT22;28498;54.400;18.566;2023-08-06T08:47:43;18.70;99.90
42365;DHT22;28498;54.400;18.566;2023-08-06T08:50:11;18.80;99.90
42365;DHT22;28498;54.400;18.566;2023-08-06T08:52:39;18.70;99.90
42365;DHT22;28498;54.400;18.566;2023-08-06T08:55:07;18.80;99.90
42365;DHT22;28498;54.400;18.566;2023-08-06T08:57:34;18.80;99.90
42365;DHT22;28498;54.400;18.566;2023-08-06T09:00:02;18.80;99.90
42365;DHT22;28498;54.400;18.566;2023-08-06T09:02:30;18.90;99.90
42365;DHT22;28498;54.400;18.566;2023-08-06T09:05:00;18.80;99.90
42365;DHT22;28498;54.400;18.566;2023-08-06T09:07:36;18.90;99.90
42365;DHT22;28498;54.400;18.566;2023-08-06T09:10:07;18.80;99.90
42365;DHT22;28498;54.400;18.566;2023-08-06T09:12:37;18.90;99.90
42365;DHT22;28498;54.400;18.566;2023-08-06T09:15:04;18.90;99.90
42365;DHT22;28498;54.400;18.566;2023-08-06T09:17:32;18.90;99.90
42365;DHT22;28498;54.400;18.566;2023-08-06T09:19:59;18.90;99.90
42365;DHT22;28498;54.400;18.566;2023-08-06T09:22:34;18.90;99.90
42365;DHT22;28498;54.400;18.566;2023-08-06T09:25:01;18.90;99.90
42365;DHT22;28498;54.400;18.566;2023-08-06T09:27:30;18.90;99.90
42365;DHT22;28498;54.400;18.566;2023-08-06T09:29:57;19.00;99.90
42365;DHT22;28498;54.400;18.566;2023-08-06T09:32:24;19.00;99.90
42365;DHT22;28498;54.400;18.566;2023-08-06T09:34:56;19.10;99.90
42365;DHT22;28498;54.400;18.566;2023-08-06T09:37:27;19.20;99.90
42365;DHT22;28498;54.400;18.566;2023-08-06T09:40:02;19.30;99.90
42365;DHT22;28498;54.400;18.566;2023-08-06T09:42:29;19.30;99.90
42365;DHT22;28498;54.400;18.566;2023-08-06T09:45:06;19.30;99.90
42365;DHT22;28498;54.400;18.566;2023-08-06T09:47:33;19.40;99.90
42365;DHT22;28498;54.400;18.566;2023-08-06T09:50:00;19.30;99.90
42365;DHT22;28498;54.400;18.566;2023-08-06T09:52:27;19.30;99.90
42365;DHT22;28498;54.400;18.566;2023-08-06T09:54:54;19.30;99.90
42365;DHT22;28498;54.400;18.566;2023-08-06T09:57:22;19.30;99.90
42365;DHT22;28498;54.400;18.566;2023-08-06T09:59:51;19.30;99.90
42365;DHT22;28498;54.400;18.566;2023-08-06T10:02:20;19.30;99.90
42365;DHT22;28498;54.400;18.566;2023-08-06T10:04:51;19.30;99.90
42365;DHT22;28498;54.400;18.566;2023-08-06T10:07:21;19.30;99.90
42365;DHT22;28498;54.400;18.566;2023-08-06T10:09:52;19.30;99.90
42365;DHT22;28498;54.400;18.566;2023-08-06T10:12:20;19.40;99.90
42365;DHT22;28498;54.400;18.566;2023-08-06T10:14:48;19.50;99.90
42365;DHT22;28498;54.400;18.566;2023-08-06T10:17:16;19.50;99.90
42365;DHT22;28498;54.400;18.566;2023-08-06T10:19:44;19.50;99.90
42365;DHT22;28498;54.400;18.566;2023-08-06T10:22:12;19.40;99.90
42365;DHT22;28498;54.400;18.566;2023-08-06T10:24:57;19.40;99.90
42365;DHT22;28498;54.400;18.566;2023-08-06T10:27:40;19.40;99.90
42365;DHT22;28498;54.400;18.566;2023-08-06T10:30:31;19.30;99.90
42365;DHT22;28498;54.400;18.566;2023-08-06T10:33:03;19.40;99.90
42365;DHT22;28498;54.400;18.566;2023-08-06T10:35:40;19.40;99.90
42365;DHT22;28498;54.400;18.566;2023-08-06T10:40:39;19.40;99.90
42365;DHT22;28498;54.400;18.566;2023-08-06T10:43:06;19.40;99.90
42365;DHT22;28498;54.400;18.566;2023-08-06T10:45:36;19.30;99.90
42365;DHT22;28498;54.400;18.566;2023-08-06T10:48:04;19.40;99.90
42365;DHT22;28498;54.400;18.566;2023-08-06T10:50:32;19.50;99.90
42365;DHT22;28498;54.400;18.566;2023-08-06T10:53:04;19.60;99.90
42365;DHT22;28498;54.400;18.566;2023-08-06T10:55:32;19.60;99.90
42365;DHT22;28498;54.400;18.566;2023-08-06T10:57:59;19.70;99.90
42365;DHT22;28498;54.400;18.566;2023-08-06T11:00:26;19.80;99.90
42365;DHT22;28498;54.400;18.566;2023-08-06T11:02:54;20.00;99.90
42365;DHT22;28498;54.400;18.566;2023-08-06T11:05:22;20.30;99.90
42365;DHT22;28498;54.400;18.566;2023-08-06T11:07:49;20.60;99.90
42365;DHT22;28498;54.400;18.566;2023-08-06T11:10:18;20.70;99.90
42365;DHT22;28498;54.400;18.566;2023-08-06T11:12:45;20.90;99.90
42365;DHT22;28498;54.400;18.566;2023-08-06T11:15:12;21.10;99.90
42365;DHT22;28498;54.400;18.566;2023-08-06T11:17:40;21.40;99.90
42365;DHT22;28498;54.400;18.566;2023-08-06T11:20:08;21.70;99.90
42365;DHT22;28498;54.400;18.566;2023-08-06T11:22:36;21.60;99.90
42365;DHT22;28498;54.400;18.566;2023-08-06T11:25:06;21.60;99.90
42365;DHT22;28498;54.400;18.566;2023-08-06T11:27:33;21.80;99.90
42365;DHT22;28498;54.400;18.566;2023-08-06T11:30:00;21.70;99.90
42365;DHT22;28498;54.400;18.566;2023-08-06T11:32:27;21.70;99.90
42365;DHT22;28498;54.400;18.566;2023-08-06T11:34:55;21.60;99.90
42365;DHT22;28498;54.400;18.566;2023-08-06T11:37:23;21.60;99.90
42365;DHT22;28498;54.400;18.566;2023-08-06T11:39:53;21.50;99.90
42365;DHT22;28498;54.400;18.566;2023-08-06T11:42:20;21.30;99.90
42365;DHT22;28498;54.400;18.566;2023-08-06T11:44:47;21.20;99.90
42365;DHT22;28498;54.400;18.566;2023-08-06T11:47:17;21.20;99.90
42365;DHT22;28498;54.400;18.566;2023-08-06T11:49:51;21.20;99.90
42365;DHT22;28498;54.400;18.566;2023-08-06T11:52:19;21.40;99.90
42365;DHT22;28498;54.400;18.566;2023-08-06T11:54:59;21.40;99.90
42365;DHT22;28498;54.400;18.566;2023-08-06T11:57:28;21.50;99.90
42365;DHT22;28498;54.400;18.566;2023-08-06T11:59:55;21.50;99.90
42365;DHT22;28498;54.400;18.566;2023-08-06T12:02:22;21.70;99.90
42365;DHT22;28498;54.400;18.566;2023-08-06T12:05:12;21.80;99.90
42365;DHT22;28498;54.400;18.566;2023-08-06T12:07:54;22.00;99.90
42365;DHT22;28498;54.400;18.566;2023-08-06T12:10:24;22.20;99.90
42365;DHT22;28498;54.400;18.566;2023-08-06T12:12:51;22.30;99.90
42365;DHT22;28498;54.400;18.566;2023-08-06T12:15:19;22.40;99.90
42365;DHT22;28498;54.400;18.566;2023-08-06T12:17:46;22.80;99.90
42365;DHT22;28498;54.400;18.566;2023-08-06T12:20:14;23.00;99.90
42365;DHT22;28498;54.400;18.566;2023-08-06T12:22:40;23.20;99.90
42365;DHT22;28498;54.400;18.566;2023-08-06T12:25:09;23.20;99.90
42365;DHT22;28498;54.400;18.566;2023-08-06T12:27:39;23.10;99.90
42365;DHT22;28498;54.400;18.566;2023-08-06T12:30:08;23.50;99.90
42365;DHT22;28498;54.400;18.566;2023-08-06T12:32:35;23.50;99.90
42365;DHT22;28498;54.400;18.566;2023-08-06T12:35:03;23.50;99.90
42365;DHT22;28498;54.400;18.566;2023-08-06T12:37:30;23.60;99.90
42365;DHT22;28498;54.400;18.566;2023-08-06T12:39:57;23.50;99.90
42365;DHT22;28498;54.400;18.566;2023-08-06T12:42:24;23.60;99.90
42365;DHT22;28498;54.400;18.566;2023-08-06T12:44:51;23.40;99.90
42365;DHT22;28498;54.400;18.566;2023-08-06T12:47:19;23.20;99.90
42365;DHT22;28498;54.400;18.566;2023-08-06T12:49:46;23.30;99.90
42365;DHT22;28498;54.400;18.566;2023-08-06T12:52:14;23.40;99.90
42365;DHT22;28498;54.400;18.566;2023-08-06T12:54:42;23.50;99.90
42365;DHT22;28498;54.400;18.566;2023-08-06T12:57:09;23.70;99.90
42365;DHT22;28498;54.400;18.566;2023-08-06T12:59:36;23.90;99.90
42365;DHT22;28498;54.400;18.566;2023-08-06T13:02:03;23.80;99.90
42365;DHT22;28498;54.400;18.566;2023-08-06T13:04:31;23.70;99.90
42365;DHT22;28498;54.400;18.566;2023-08-06T13:06:58;23.80;99.90
42365;DHT22;28498;54.400;18.566;2023-08-06T13:09:25;24.10;99.90
42365;DHT22;28498;54.400;18.566;2023-08-06T13:11:57;24.00;99.90
42365;DHT22;28498;54.400;18.566;2023-08-06T13:14:26;23.80;99.90
42365;DHT22;28498;54.400;18.566;2023-08-06T13:16:55;23.90;99.90
42365;DHT22;28498;54.400;18.566;2023-08-06T13:19:23;24.00;99.90
42365;DHT22;28498;54.400;18.566;2023-08-06T13:24:17;23.60;99.90
42365;DHT22;28498;54.400;18.566;2023-08-06T13:26:44;23.80;99.90
42365;DHT22;28498;54.400;18.566;2023-08-06T13:29:11;23.60;99.90
42365;DHT22;28498;54.400;18.566;2023-08-06T13:31:38;23.80;99.90
42365;DHT22;28498;54.400;18.566;2023-08-06T13:34:05;23.80;99.90
42365;DHT22;28498;54.400;18.566;2023-08-06T13:36:32;23.90;99.90
42365;DHT22;28498;54.400;18.566;2023-08-06T13:39:00;24.10;99.90
42365;DHT22;28498;54.400;18.566;2023-08-06T13:41:27;24.40;99.90
42365;DHT22;28498;54.400;18.566;2023-08-06T13:43:55;24.30;99.90
42365;DHT22;28498;54.400;18.566;2023-08-06T13:46:22;24.20;99.90
42365;DHT22;28498;54.400;18.566;2023-08-06T13:48:49;24.20;99.90
42365;DHT22;28498;54.400;18.566;2023-08-06T13:51:18;24.50;99.90
42365;DHT22;28498;54.400;18.566;2023-08-06T13:53:46;24.60;99.90
42365;DHT22;28498;54.400;18.566;2023-08-06T13:56:13;24.60;99.90
42365;DHT22;28498;54.400;18.566;2023-08-06T13:58:42;24.70;99.90
42365;DHT22;28498;54.400;18.566;2023-08-06T14:01:12;24.70;99.90
42365;DHT22;28498;54.400;18.566;2023-08-06T14:03:40;24.80;99.90
42365;DHT22;28498;54.400;18.566;2023-08-06T14:06:07;25.00;99.90
42365;DHT22;28498;54.400;18.566;2023-08-06T14:08:34;25.30;99.90
42365;DHT22;28498;54.400;18.566;2023-08-06T14:11:01;25.30;99.90
42365;DHT22;28498;54.400;18.566;2023-08-06T14:13:28;25.30;99.90
42365;DHT22;28498;54.400;18.566;2023-08-06T14:15:55;25.00;99.90
42365;DHT22;28498;54.400;18.566;2023-08-06T14:18:22;24.90;99.90
42365;DHT22;28498;54.400;18.566;2023-08-06T14:20:49;24.60;99.90
42365;DHT22;28498;54.400;18.566;2023-08-06T14:23:16;24.30;99.90
42365;DHT22;28498;54.400;18.566;2023-08-06T14:25:43;24.10;99.90
42365;DHT22;28498;54.400;18.566;2023-08-06T14:28:10;23.90;99.90
42365;DHT22;28498;54.400;18.566;2023-08-06T14:30:38;23.80;99.90
42365;DHT22;28498;54.400;18.566;2023-08-06T14:33:05;23.50;99.90
42365;DHT22;28498;54.400;18.566;2023-08-06T14:35:52;23.40;99.90
42365;DHT22;28498;54.400;18.566;2023-08-06T14:38:19;23.20;99.90
42365;DHT22;28498;54.400;18.566;2023-08-06T14:40:46;23.10;99.90
42365;DHT22;28498;54.400;18.566;2023-08-06T14:43:13;22.80;99.90
42365;DHT22;28498;54.400;18.566;2023-08-06T14:45:41;22.60;99.90
42365;DHT22;28498;54.400;18.566;2023-08-06T14:48:08;22.50;99.90
42365;DHT22;28498;54.400;18.566;2023-08-06T14:50:36;22.30;99.90
42365;DHT22;28498;54.400;18.566;2023-08-06T14:53:03;22.20;99.90
42365;DHT22;28498;54.400;18.566;2023-08-06T14:55:31;22.10;99.90
42365;DHT22;28498;54.400;18.566;2023-08-06T14:58:00;22.00;99.90
42365;DHT22;28498;54.400;18.566;2023-08-06T15:00:28;21.90;99.90
42365;DHT22;28498;54.400;18.566;2023-08-06T15:02:55;21.80;99.90
42365;DHT22;28498;54.400;18.566;2023-08-06T15:05:22;21.40;99.90
42365;DHT22;28498;54.400;18.566;2023-08-06T15:07:50;21.10;99.90
42365;DHT22;28498;54.400;18.566;2023-08-06T15:10:19;21.00;99.90
42365;DHT22;28498;54.400;18.566;2023-08-06T15:12:54;20.90;99.90
42365;DHT22;28498;54.400;18.566;2023-08-06T15:15:21;20.80;99.90
42365;DHT22;28498;54.400;18.566;2023-08-06T15:17:52;20.80;99.90
42365;DHT22;28498;54.400;18.566;2023-08-06T15:20:20;20.90;99.90
42365;DHT22;28498;54.400;18.566;2023-08-06T15:22:47;20.90;99.90
42365;DHT22;28498;54.400;18.566;2023-08-06T15:25:14;20.90;99.90
42365;DHT22;28498;54.400;18.566;2023-08-06T15:27:41;20.90;99.90
42365;DHT22;28498;54.400;18.566;2023-08-06T15:30:08;20.80;99.90
42365;DHT22;28498;54.400;18.566;2023-08-06T15:32:35;20.80;99.90